Alpena, MI

4:53 AM EDT on August 30, 2014 (GMT -0400)
Alpena County Regional | Change Station
CLOSE
Current Station
Airport
Location: Alpena,
Elevation: 689 ft
Nearby Weather Stations

Elev 689 ft 45.07 °N, 83.56 °W | Updated 59 minutes ago

Scattered Clouds
Scattered Clouds
65 °F
Feels Like 65 °F
N
10
Wind Variable Wind from South

Today
High -- | Low -- °F
--% Chance of Precip.
Yesterday
High -- | Low -- °F
Precip. -- in
6:53 AM 8:14 PM
Waxing Crescent, 20% visible
Pressure 29.90 in
Visibility 10.0 miles
Clouds Scattered Clouds 11000 ft
Dew Point 62 °F
Humidity 90%
Rainfall 0.18 in
Snow Depth Not available.
UV 0 out of 12
Pollen 7.20 out of 12
Ozone Good
PM2.5 Moderate
Flu Activity Not available.
METAR KAPN 300754Z AUTO 17009KT 10SM SCT110 18/17 A2990 RMK AO2 LTG DSNT NE AND E RAE00 TSE0657E03E12 SLP123 P0000 T01830167

More Conditions Fewer Conditions

Pressure 29.90 in
Visibility 10.0 miles
Clouds Scattered Clouds 11000 ft
Dew Point 62 °F
Humidity 90%
Rainfall 0.18 in
Snow Depth Not available.
UV 0 out of 12
Pollen 7.20 out of 12
Ozone Good
PM2.5 Moderate
Flu Activity Not available.
METAR KAPN 300754Z AUTO 17009KT 10SM SCT110 18/17 A2990 RMK AO2 LTG DSNT NE AND E RAE00 TSE0657E03E12 SLP123 P0000 T01830167

More Conditions Fewer Conditions

Nowcast | as of 4:00 am EDT on August 30, 2014

At 5 am...mostly cloudy. Scattered rain showers and isolated thunderstorms. Temperature 66. South winds 7 mph. At 7 am...mostly cloudy. Scattered rain showers and isolated thunderstorms. Temperature 66. South winds 6 mph. At 9 am...mostly cloudy. Scattered rain showers and isolated thunderstorms. Temperature 69. South winds 7 mph. At 11 am...periods of rain showers and scattered thunderstorms. Temperature 73. South winds 7 mph.

×

10-Day Weather Forecast

Almanac

Astronomy

Aug. 30, 2014 Rise Set
Actual Time 6:53 AM EDT 8:14 PM EDT
Civil Twilight 6:22 AM EDT 8:45 PM EDT
Nautical Twilight 5:46 AM EDT 9:21 PM EDT
Astronomical Twilight 5:06 AM EDT 10:00 PM EDT
Moon 11:54 AM EDT 10:33 PM EDT
Length of Visible Light 14h 22m
Length of Day
13h 21m
Tomorrow will be 3m 0s shorter.
Waxing Crescent, 20% of the Moon is Illuminated
Today
Waxing Crescent
Sep 2
First Quarter
Sep 8
Full
Sep 15
Last Quarter
Sep 24
New

Today's Extremes

State Highs State Lows

Community

WunderPhotos

Upload Photos

1,748,474 photos uploaded!

Nearby

Air Quality

  Air Quality AQ Index Pollutant
Yesterday Good
PM2.5
Yesterday Good
OZONE
Current Moderate
PM2.5
Current Good
OZONE
Saturday Good
OZONE
Saturday Good
PM2.5
Sunday Good
OZONE
Sunday Good
PM2.5
Monday Good
OZONE
Monday Good
PM2.5
Tuesday Good
OZONE
Tuesday Good
PM2.5

Snow Depth

Station Depth Elevation
No new snow has been reported.

Earthquake Activity

City Distance Mag. Time & Date
No recent earthquake activity has been reported nearby.
Minimum magnitude displayed is 2.5.

Coastal Water Temperatures

Place Temperature
Alpena, MI 62.1 °F

Nearby Weather Stations